createdAt,value
2023-01-03T18:41:16.686Z,102428.59
2023-01-03T18:43:44.373Z,102432.09
2023-01-03T18:46:14.137Z,102424.22
2023-01-03T18:48:41.841Z,102418.09
2023-01-03T18:51:10.193Z,102418.97
2023-01-03T18:53:37.885Z,102423.34
2023-01-03T18:56:05.967Z,102413.72
2023-01-03T18:58:36.184Z,102409.34
2023-01-03T19:01:04.035Z,102401.47
2023-01-03T19:03:32.975Z,102409.34
2023-01-03T19:06:01.116Z,102402.34
2023-01-03T19:08:30.736Z,102410.22
2023-01-03T19:10:59.254Z,102405.84
2023-01-03T19:13:30.858Z,102395.38
2023-01-03T19:15:59.977Z,102395.38
2023-01-03T19:18:27.684Z,102384.88
2023-01-03T19:20:55.363Z,102385.75
2023-01-03T19:23:24.918Z,102374.34
2023-01-03T19:25:52.602Z,102368.25
2023-01-03T19:28:23.070Z,102372.59
2023-01-03T19:30:50.817Z,102362.09
2023-01-03T19:33:21.186Z,102371.75
2023-01-03T19:35:49.805Z,102362.97
2023-01-03T19:38:17.523Z,102366.50
2023-01-03T19:40:45.550Z,102364.72
2023-01-03T19:43:19.332Z,102348.97
2023-01-03T19:45:47.021Z,102347.22
2023-01-03T19:48:16.983Z,102347.22
2023-01-03T19:50:46.045Z,102342.88
2023-01-03T19:53:13.718Z,102327.13
2023-01-03T19:55:42.174Z,102324.50
2023-01-03T19:58:15.626Z,102327.13
2023-01-03T20:00:43.282Z,102321.00
2023-01-03T20:03:14.085Z,102325.38
2023-01-03T20:05:41.863Z,102319.25
2023-01-03T20:08:12.464Z,102322.75
2023-01-03T20:10:41.425Z,102318.38
2023-01-03T20:13:11.854Z,102314.88
2023-01-03T20:15:42.179Z,102306.13
2023-01-03T20:18:20.254Z,102307.00
2023-01-03T20:20:47.941Z,102306.13
2023-01-03T20:23:17.236Z,102304.38
2023-01-03T20:25:45.006Z,102300.88
2023-01-03T20:28:16.347Z,102286.88
2023-01-03T20:30:44.063Z,102281.63
2023-01-03T20:33:11.779Z,102287.75
2023-01-03T20:38:28.506Z,102277.28
2023-01-03T20:40:56.441Z,102267.63
2023-01-03T20:43:24.306Z,102254.50
2023-01-03T20:45:53.296Z,102245.78
2023-01-03T20:48:25.631Z,102244.91
2023-01-03T20:50:54.108Z,102240.53
2023-01-03T20:53:22.852Z,102245.78
2023-01-03T20:55:51.932Z,102240.53
2023-01-03T20:58:20.395Z,102238.78
2023-01-03T21:00:48.163Z,102237.91
2023-01-03T21:03:16.065Z,102238.78
2023-01-03T21:05:43.993Z,102231.78
2023-01-03T21:08:42.079Z,102221.28
2023-01-03T21:11:12.177Z,102214.31
2023-01-03T21:13:39.933Z,102203.81
2023-01-03T21:16:15.379Z,102201.19
2023-01-03T21:18:43.078Z,102200.31
2023-01-03T21:21:11.938Z,102187.19
2023-01-03T21:23:39.620Z,102185.44
2023-01-03T21:26:07.628Z,102181.94
2023-01-03T21:28:36.706Z,102180.19
2023-01-03T21:31:05.507Z,102181.94
2023-01-03T21:33:33.541Z,102188.06
2023-01-03T21:36:01.216Z,102174.06
2023-01-03T21:38:29.167Z,102167.06
2023-01-03T21:40:56.926Z,102163.56
2023-01-03T21:43:24.603Z,102160.97
2023-01-03T21:45:56.260Z,102165.34
2023-01-03T21:48:23.994Z,102167.06
2023-01-03T21:50:51.684Z,102169.69
2023-01-03T21:53:20.185Z,102166.22
2023-01-03T21:55:47.932Z,102169.72
2023-01-03T21:58:16.105Z,102176.69
2023-01-03T22:00:43.836Z,102164.47
2023-01-03T22:03:30.687Z,102165.34
2023-01-03T22:06:06.871Z,102153.97
2023-01-03T22:08:34.587Z,102150.47
2023-01-03T22:11:02.243Z,102155.72
2023-01-03T22:13:29.960Z,102130.38
2023-01-03T22:15:58.009Z,102120.75
2023-01-03T22:18:27.124Z,102111.13
2023-01-03T22:20:54.883Z,102107.63
2023-01-03T22:23:22.959Z,102099.75
2023-01-03T22:25:50.639Z,102098.03
2023-01-03T22:28:18.310Z,102096.28
2023-01-03T22:30:46.005Z,102096.28
2023-01-03T22:33:13.672Z,102096.28
2023-01-03T22:35:43.112Z,102093.66
2023-01-03T22:38:10.769Z,102086.63
2023-01-03T22:40:38.428Z,102091.03
2023-01-03T22:43:06.124Z,102084.00
2023-01-03T22:45:33.853Z,102084.00
2023-01-03T22:48:01.556Z,102076.16
2023-01-03T22:50:29.241Z,102076.16
2023-01-03T22:52:58.367Z,102069.16
2023-01-03T22:55:30.103Z,102058.66
2023-01-03T22:57:59.799Z,102054.31
2023-01-03T23:00:27.890Z,102029.81
2023-01-03T23:02:55.598Z,102008.84
2023-01-03T23:05:23.299Z,102018.44
2023-01-03T23:07:50.964Z,101998.34
2023-01-03T23:10:20.128Z,101995.72
2023-01-03T23:12:58.770Z,101993.97
2023-01-03T23:15:26.746Z,101999.22
2023-01-03T23:17:57.366Z,101994.88
2023-01-03T23:20:26.612Z,101983.50
2023-01-03T23:22:59.711Z,101976.47
2023-01-03T23:25:29.733Z,101985.22
2023-01-03T23:27:57.451Z,101985.22
2023-01-03T23:30:25.220Z,101979.97
2023-01-03T23:32:52.969Z,101966.84
2023-01-03T23:35:20.697Z,101960.72
2023-01-03T23:37:48.418Z,101957.25
2023-01-03T23:40:16.410Z,101941.50
2023-01-03T23:42:45.504Z,101938.00
2023-01-03T23:45:13.392Z,101923.16
2023-01-03T23:47:41.051Z,101933.66
2023-01-03T23:50:09.297Z,101934.53
2023-01-03T23:52:36.961Z,101925.78
2023-01-03T23:55:10.359Z,101922.28
2023-01-03T23:57:40.253Z,101921.41
